createdAt,value
2022-10-26T00:01:43.427Z,100440.78
2022-10-26T00:04:44.961Z,100437.66
2022-10-26T00:07:46.662Z,100455.56
2022-10-26T00:10:48.078Z,100467.22
2022-10-26T00:13:49.505Z,100472.34
2022-10-26T00:16:50.921Z,100484.50
2022-10-26T00:19:52.517Z,100485.13
2022-10-26T00:22:53.927Z,100464.38
2022-10-26T00:25:56.973Z,100475.06
2022-10-26T00:28:58.348Z,100470.78
2022-10-26T00:31:59.786Z,100463.13
2022-10-26T00:35:10.580Z,100467.66
2022-10-26T00:38:22.910Z,100465.78
2022-10-26T00:41:32.477Z,100468.44
2022-10-26T00:44:48.965Z,100458.59
2022-10-26T00:47:54.966Z,100459.69
2022-10-26T00:51:01.103Z,100449.38
2022-10-26T00:54:05.578Z,100455.94
2022-10-26T00:57:07.228Z,100457.59
2022-10-26T01:00:09.241Z,100453.13
2022-10-26T01:03:11.791Z,100458.13
2022-10-26T01:06:14.104Z,100443.06
2022-10-26T01:09:17.737Z,100452.66
2022-10-26T01:12:19.229Z,100448.13
2022-10-26T01:15:29.240Z,100453.44
2022-10-26T01:19:01.379Z,100449.63
2022-10-26T01:22:16.762Z,100454.94
2022-10-26T01:25:33.477Z,100458.28
2022-10-26T01:28:58.359Z,100456.72
2022-10-26T01:32:07.478Z,100445.47
2022-10-26T01:35:14.385Z,100447.22
2022-10-26T01:38:29.906Z,100433.44
2022-10-26T01:41:36.628Z,100423.94
2022-10-26T01:44:56.746Z,100418.69
2022-10-26T01:48:00.145Z,100409.72
2022-10-26T01:51:04.706Z,100410.66
2022-10-26T01:54:06.161Z,100406.28
2022-10-26T01:57:11.336Z,100398.31
2022-10-26T02:00:13.641Z,100395.53
2022-10-26T02:03:43.643Z,100404.97
2022-10-26T02:07:15.332Z,100417.38
2022-10-26T02:10:38.748Z,100418.38
2022-10-26T02:13:52.163Z,100427.03
2022-10-26T02:16:58.261Z,100427.03
2022-10-26T02:20:07.893Z,100423.44
2022-10-26T02:23:12.210Z,100433.13
2022-10-26T02:26:17.850Z,100433.00
2022-10-26T02:29:20.488Z,100438.63
2022-10-26T02:32:25.509Z,100438.53
2022-10-26T02:35:31.214Z,100436.72
2022-10-26T02:38:34.377Z,100435.78
2022-10-26T02:41:39.548Z,100437.75
2022-10-26T02:44:54.366Z,100434.88
2022-10-26T02:47:56.589Z,100443.06
2022-10-26T02:51:11.134Z,100438.22
2022-10-26T02:54:41.947Z,100434.06
2022-10-26T02:57:49.594Z,100435.09
2022-10-26T03:00:51.693Z,100429.88
2022-10-26T03:03:57.340Z,100422.75
2022-10-26T03:06:58.858Z,100443.13
2022-10-26T03:10:00.245Z,100469.84
2022-10-26T03:13:01.625Z,100466.41
2022-10-26T03:16:03.017Z,100471.72
2022-10-26T03:19:04.436Z,100474.50
2022-10-26T03:22:05.849Z,100468.34
2022-10-26T03:28:10.119Z,100463.81
2022-10-26T03:31:12.093Z,100457.50
2022-10-26T03:34:13.927Z,100447.81
2022-10-26T03:37:15.324Z,100437.22
2022-10-26T03:40:16.809Z,100436.28
2022-10-26T03:43:18.366Z,100426.53
2022-10-26T03:46:19.757Z,100429.19
2022-10-26T03:49:21.157Z,100448.44
2022-10-26T03:52:24.105Z,100445.25
2022-10-26T03:55:25.498Z,100446.97
2022-10-26T03:58:26.998Z,100452.97
2022-10-26T04:01:28.470Z,100459.06
2022-10-26T04:04:30.074Z,100452.19
2022-10-26T04:07:31.537Z,100455.78
2022-10-26T04:10:32.975Z,100454.84
2022-10-26T04:13:34.641Z,100452.34
2022-10-26T04:16:36.054Z,100448.13
2022-10-26T04:19:37.505Z,100440.22
2022-10-26T04:22:38.961Z,100449.06
2022-10-26T04:25:40.812Z,100459.66
2022-10-26T04:28:42.240Z,100447.34
2022-10-26T04:34:50.106Z,100446.47
2022-10-26T04:37:51.619Z,100442.19
2022-10-26T04:40:53.203Z,100444.91
2022-10-26T04:43:54.622Z,100435.22
2022-10-26T04:46:56.075Z,100431.03
2022-10-26T04:49:57.577Z,100447.81
2022-10-26T04:52:59.001Z,100445.94
2022-10-26T04:56:01.280Z,100453.97
2022-10-26T04:59:02.741Z,100439.69
2022-10-26T05:02:04.239Z,100421.28
2022-10-26T05:05:07.830Z,100426.41
2022-10-26T05:08:11.376Z,100425.66
2022-10-26T05:11:12.832Z,100433.59
2022-10-26T05:14:14.290Z,100436.72
2022-10-26T05:17:15.799Z,100441.09
2022-10-26T05:20:17.193Z,100449.22
2022-10-26T05:23:18.788Z,100447.44
2022-10-26T05:26:20.330Z,100443.91
2022-10-26T05:29:21.803Z,100460.59
2022-10-26T05:32:23.389Z,100477.47
2022-10-26T05:35:26.312Z,100480.03
2022-10-26T05:38:27.810Z,100482.69
2022-10-26T05:41:29.288Z,100485.50
2022-10-26T05:44:30.702Z,100498.16
2022-10-26T05:47:32.131Z,100491.81
2022-10-26T05:50:33.538Z,100493.53
2022-10-26T05:53:34.978Z,100493.59
2022-10-26T05:56:38.900Z,100489.66
2022-10-26T05:59:40.599Z,100499.72
2022-10-26T06:02:56.500Z,100514.06
2022-10-26T06:06:01.585Z,100509.47
2022-10-26T06:09:05.853Z,100502.53
2022-10-26T06:12:09.107Z,100513.53
2022-10-26T06:15:16.784Z,100511.19
2022-10-26T06:18:28.165Z,100521.94
2022-10-26T06:21:45.042Z,100533.69
2022-10-26T06:24:56.165Z,100534.66
2022-10-26T06:28:14.855Z,100542.47
2022-10-26T06:31:16.573Z,100545.16
2022-10-26T06:34:33.173Z,100553.06
2022-10-26T06:37:36.397Z,100555.66
2022-10-26T06:40:40.498Z,100553.63
2022-10-26T06:43:42.152Z,100560.38
2022-10-26T06:47:09.663Z,100560.22
2022-10-26T06:50:29.399Z,100563.50
2022-10-26T06:53:42.194Z,100558.88
2022-10-26T06:56:45.978Z,100565.97
2022-10-26T06:59:52.120Z,100564.25
2022-10-26T07:02:53.914Z,100565.06
2022-10-26T07:05:56.223Z,100561.66
2022-10-26T07:08:57.685Z,100567.53
2022-10-26T07:11:59.168Z,100576.44
2022-10-26T07:15:00.718Z,100590.28
2022-10-26T07:18:05.666Z,100589.00
2022-10-26T07:21:07.063Z,100604.75
2022-10-26T07:24:08.748Z,100605.25
2022-10-26T07:27:10.184Z,100603.06
2022-10-26T07:30:12.298Z,100619.56
2022-10-26T07:33:14.489Z,100629.19
2022-10-26T07:36:15.916Z,100639.72
2022-10-26T07:39:17.349Z,100632.31
2022-10-26T07:42:18.825Z,100628.56
2022-10-26T07:45:20.314Z,100627.94
2022-10-26T07:48:21.693Z,100629.88
2022-10-26T07:51:23.064Z,100631.34
2022-10-26T07:54:24.592Z,100635.09
2022-10-26T07:57:26.017Z,100627.13
2022-10-26T08:00:28.837Z,100630.22
2022-10-26T08:03:30.466Z,100646.06
2022-10-26T08:06:31.953Z,100630.84
2022-10-26T08:09:33.343Z,100644.13
2022-10-26T08:12:34.781Z,100646.00
2022-10-26T08:15:36.498Z,100635.38
2022-10-26T08:18:37.900Z,100637.75
2022-10-26T08:21:40.732Z,100639.59
2022-10-26T08:24:44.086Z,100644.22
2022-10-26T08:27:45.480Z,100644.41
2022-10-26T08:30:46.863Z,100652.19
2022-10-26T08:33:48.626Z,100654.59
2022-10-26T08:36:50.464Z,100661.47
2022-10-26T08:39:54.697Z,100650.72
2022-10-26T08:43:03.362Z,100659.75
2022-10-26T08:46:13.312Z,100669.38
2022-10-26T08:49:24.665Z,100670.19
2022-10-26T08:52:47.195Z,100669.44
2022-10-26T08:55:53.331Z,100673.53
2022-10-26T08:59:01.302Z,100674.38
2022-10-26T09:02:13.520Z,100675.47
2022-10-26T09:05:17.201Z,100679.91
2022-10-26T09:09:00.098Z,100683.75
2022-10-26T09:12:10.634Z,100685.00
2022-10-26T09:15:28.746Z,100686.75
2022-10-26T09:22:14.784Z,100698.91
2022-10-26T09:25:22.752Z,100709.34
2022-10-26T09:28:25.064Z,100700.13
2022-10-26T09:31:26.930Z,100699.19
2022-10-26T09:34:42.471Z,100706.13
2022-10-26T09:37:50.393Z,100704.97
2022-10-26T09:41:02.891Z,100715.06
2022-10-26T09:44:21.587Z,100719.94
2022-10-26T09:47:33.507Z,100712.84
2022-10-26T09:50:38.911Z,100713.72
2022-10-26T09:53:40.294Z,100720.38
2022-10-26T09:56:44.852Z,100717.19
2022-10-26T09:59:47.930Z,100720.44
2022-10-26T10:02:57.324Z,100722.38
2022-10-26T10:06:15.799Z,100730.78
2022-10-26T10:09:22.619Z,100723.72
2022-10-26T10:12:25.182Z,100720.66
2022-10-26T10:15:26.857Z,100727.69
2022-10-26T10:18:28.696Z,100723.94
2022-10-26T10:21:36.543Z,100725.38
2022-10-26T10:24:41.192Z,100724.19
2022-10-26T10:27:54.216Z,100726.91
2022-10-26T10:31:26.113Z,100740.28
2022-10-26T10:34:30.530Z,100743.03
2022-10-26T10:37:39.519Z,100739.88
2022-10-26T10:40:49.253Z,100739.47
2022-10-26T10:44:01.626Z,100741.06
2022-10-26T10:47:07.373Z,100745.47
2022-10-26T10:50:14.636Z,100755.94
2022-10-26T10:53:25.641Z,100766.31
2022-10-26T10:56:52.384Z,100757.47
2022-10-26T11:00:05.137Z,100767.06
2022-10-26T11:03:32.662Z,100769.44
2022-10-26T11:06:38.785Z,100770.41
2022-10-26T11:09:45.018Z,100761.91
2022-10-26T11:12:57.028Z,100772.53
2022-10-26T11:16:04.079Z,100773.84
2022-10-26T11:19:20.041Z,100776.53
2022-10-26T11:22:27.736Z,100785.00
2022-10-26T11:25:34.853Z,100788.09
2022-10-26T11:28:51.674Z,100783.19
2022-10-26T11:32:08.098Z,100783.09
2022-10-26T11:35:26.674Z,100784.13
2022-10-26T11:38:56.795Z,100790.97
2022-10-26T11:42:07.169Z,100795.19
2022-10-26T11:45:30.797Z,100798.66
2022-10-26T11:48:54.386Z,100792.66
2022-10-26T11:52:02.551Z,100794.81
2022-10-26T11:55:04.735Z,100788.44
2022-10-26T11:58:08.626Z,100799.38
2022-10-26T12:01:13.816Z,100788.47
2022-10-26T12:04:16.889Z,100801.56
2022-10-26T12:07:31.340Z,100801.72
2022-10-26T12:10:34.983Z,100802.66
2022-10-26T12:13:45.151Z,100804.94
2022-10-26T12:16:52.245Z,100801.63
2022-10-26T12:19:58.386Z,100796.50
2022-10-26T12:22:59.902Z,100796.50
2022-10-26T12:26:38.037Z,100794.53
2022-10-26T12:29:49.216Z,100795.56
2022-10-26T12:32:54.571Z,100803.59
2022-10-26T12:35:56.321Z,100801.22
2022-10-26T12:38:58.503Z,100808.47
2022-10-26T12:42:05.633Z,100811.63
2022-10-26T12:45:28.094Z,100808.69
2022-10-26T12:48:47.890Z,100811.34
2022-10-26T12:51:49.566Z,100799.16
2022-10-26T12:55:12.874Z,100817.81
2022-10-26T12:58:20.346Z,100822.13
2022-10-26T13:01:36.786Z,100817.19
2022-10-26T13:05:19.731Z,100815.88
2022-10-26T13:08:21.561Z,100804.72
2022-10-26T13:11:38.096Z,100815.25
2022-10-26T13:14:51.599Z,100819.75
2022-10-26T13:18:00.504Z,100819.50
2022-10-26T13:21:16.936Z,100815.47
2022-10-26T13:24:23.230Z,100817.38
2022-10-26T13:27:41.333Z,100817.84
2022-10-26T13:30:47.903Z,100820.41
2022-10-26T13:33:52.453Z,100819.75
2022-10-26T13:37:23.302Z,100808.16
2022-10-26T13:40:27.679Z,100810.94
2022-10-26T13:43:29.258Z,100812.91
2022-10-26T13:46:36.502Z,100815.72
2022-10-26T13:49:47.318Z,100807.53
2022-10-26T13:52:53.420Z,100819.00
2022-10-26T13:56:08.582Z,100820.88
2022-10-26T13:59:12.887Z,100823.31
2022-10-26T14:02:17.105Z,100829.16
2022-10-26T14:05:19.248Z,100825.44
2022-10-26T14:08:21.909Z,100833.38
2022-10-26T14:11:32.321Z,100834.88
2022-10-26T14:14:37.264Z,100842.88
2022-10-26T14:17:38.756Z,100847.78
2022-10-26T14:20:40.298Z,100836.88
2022-10-26T14:23:56.554Z,100849.38
2022-10-26T14:26:58.020Z,100856.31
2022-10-26T14:33:29.229Z,100855.81
2022-10-26T14:36:40.896Z,100857.31
2022-10-26T14:39:45.288Z,100863.22
2022-10-26T14:42:52.298Z,100863.50
2022-10-26T14:45:54.415Z,100866.09
2022-10-26T14:48:58.714Z,100865.44
2022-10-26T14:52:05.473Z,100874.56
2022-10-26T14:55:15.130Z,100874.22
2022-10-26T15:01:32.044Z,100871.88
2022-10-26T15:04:39.036Z,100872.91
2022-10-26T15:07:43.446Z,100877.41
2022-10-26T15:10:46.958Z,100876.03
2022-10-26T15:13:48.444Z,100877.50
2022-10-26T15:16:56.133Z,100887.66
2022-10-26T15:20:04.174Z,100899.19
2022-10-26T15:23:05.694Z,100900.84
2022-10-26T15:26:11.795Z,100912.66
2022-10-26T15:29:35.119Z,100917.50
2022-10-26T15:32:36.615Z,100916.84
2022-10-26T15:35:38.087Z,100916.88
2022-10-26T15:38:39.486Z,100917.47
2022-10-26T15:41:45.947Z,100922.06
2022-10-26T15:44:50.764Z,100925.69
2022-10-26T15:47:55.509Z,100925.47
2022-10-26T15:50:57.083Z,100936.19
2022-10-26T15:53:59.030Z,100943.88
2022-10-26T15:57:01.860Z,100941.38
2022-10-26T16:00:05.950Z,100938.69
2022-10-26T16:03:13.757Z,100942.34
2022-10-26T16:06:26.147Z,100939.09
2022-10-26T16:09:28.282Z,100937.56
2022-10-26T16:12:29.846Z,100947.78
2022-10-26T16:15:31.759Z,100945.22
2022-10-26T16:18:33.171Z,100944.66
2022-10-26T16:21:34.626Z,100944.25
2022-10-26T16:24:36.102Z,100948.97
2022-10-26T16:27:37.547Z,100948.28
2022-10-26T16:33:45.631Z,100959.69
2022-10-26T16:36:47.075Z,100955.56
2022-10-26T16:39:48.544Z,100959.47
2022-10-26T16:42:50.196Z,100965.31
2022-10-26T16:45:51.785Z,100966.53
2022-10-26T16:48:53.232Z,100973.53
2022-10-26T16:51:54.682Z,100975.78
2022-10-26T16:54:56.115Z,100982.63
2022-10-26T16:57:57.554Z,100980.03
2022-10-26T17:00:59.012Z,100993.88
2022-10-26T17:04:00.919Z,100992.41
2022-10-26T17:07:02.501Z,100991.31
2022-10-26T17:10:04.344Z,100999.03
2022-10-26T17:13:06.048Z,101010.56
2022-10-26T17:16:11.706Z,101025.03
2022-10-26T17:19:13.302Z,101019.00
2022-10-26T17:22:14.693Z,101029.47
2022-10-26T17:25:16.360Z,101033.09
2022-10-26T17:28:17.833Z,101029.81
2022-10-26T17:31:19.661Z,101034.53
2022-10-26T17:34:21.174Z,101049.31
2022-10-26T17:37:22.685Z,101051.53
2022-10-26T17:40:24.105Z,101056.31
2022-10-26T17:43:25.497Z,101060.88
2022-10-26T17:46:28.310Z,101053.41
2022-10-26T17:49:33.633Z,101070.97
2022-10-26T17:52:37.361Z,101070.81
2022-10-26T17:55:38.737Z,101069.19
2022-10-26T17:58:40.398Z,101070.34
2022-10-26T18:01:43.260Z,101074.88
2022-10-26T18:04:45.737Z,101085.63
2022-10-26T18:07:47.448Z,101093.00
2022-10-26T18:10:50.514Z,101097.00
2022-10-26T18:13:53.737Z,101099.16
2022-10-26T18:16:55.922Z,101100.25
2022-10-26T18:22:59.656Z,101109.72
2022-10-26T18:26:31.020Z,101110.72
2022-10-26T18:29:35.000Z,101112.91
2022-10-26T18:32:38.852Z,101120.38
2022-10-26T18:35:40.241Z,101112.75
2022-10-26T18:38:42.049Z,101120.03
2022-10-26T18:41:43.984Z,101115.88
2022-10-26T18:44:45.488Z,101114.94
2022-10-26T18:47:46.944Z,101119.16
2022-10-26T18:50:48.348Z,101120.19
2022-10-26T18:53:49.855Z,101124.25
2022-10-26T18:56:51.239Z,101116.34
2022-10-26T18:59:54.884Z,101123.47
2022-10-26T19:02:57.000Z,101130.56
2022-10-26T19:05:58.804Z,101134.44
2022-10-26T19:09:00.376Z,101131.19
2022-10-26T19:12:03.791Z,101133.22
2022-10-26T19:15:06.053Z,101138.09
2022-10-26T19:18:07.469Z,101133.00
2022-10-26T19:21:12.641Z,101134.19
2022-10-26T19:24:16.957Z,101144.13
2022-10-26T19:30:24.757Z,101148.34
2022-10-26T19:33:27.543Z,101150.16
2022-10-26T19:36:29.391Z,101154.50
2022-10-26T19:39:31.016Z,101157.25
2022-10-26T19:42:32.514Z,101151.94
2022-10-26T19:45:35.731Z,101158.19
2022-10-26T19:48:37.638Z,101168.38
2022-10-26T19:51:39.129Z,101163.78
2022-10-26T19:54:40.522Z,101166.31
2022-10-26T19:57:42.629Z,101166.53
2022-10-26T20:00:44.400Z,101178.03
2022-10-26T20:03:46.187Z,101172.84
2022-10-26T20:06:47.732Z,101177.16
2022-10-26T20:09:49.131Z,101173.63
2022-10-26T20:12:51.021Z,101178.03
2022-10-26T20:15:52.793Z,101179.81
2022-10-26T20:18:54.184Z,101182.41
2022-10-26T20:21:55.593Z,101183.34
2022-10-26T20:24:57.113Z,101188.06
2022-10-26T20:27:58.554Z,101189.91
2022-10-26T20:31:00.098Z,101184.53
2022-10-26T20:34:01.593Z,101184.66
2022-10-26T20:37:03.116Z,101194.63
2022-10-26T20:40:05.119Z,101191.31
2022-10-26T20:43:06.745Z,101195.16
2022-10-26T20:46:11.419Z,101193.97
2022-10-26T20:49:13.000Z,101188.66
2022-10-26T20:52:22.070Z,101195.84
2022-10-26T20:55:34.285Z,101208.28
2022-10-26T20:58:44.176Z,101211.66
2022-10-26T21:01:45.698Z,101213.22
2022-10-26T21:04:47.210Z,101215.06
2022-10-26T21:07:48.637Z,101216.81
2022-10-26T21:10:51.307Z,101212.47
2022-10-26T21:13:54.035Z,101220.59
2022-10-26T21:16:55.413Z,101216.25
2022-10-26T21:19:56.829Z,101216.53
2022-10-26T21:22:58.467Z,101223.78
2022-10-26T21:26:00.695Z,101226.50
2022-10-26T21:29:02.166Z,101229.09
2022-10-26T21:32:03.885Z,101218.66
2022-10-26T21:35:05.843Z,101219.50
2022-10-26T21:38:07.245Z,101216.00
2022-10-26T21:41:20.183Z,101218.59
2022-10-26T21:44:35.601Z,101217.53
2022-10-26T21:47:41.202Z,101223.78
2022-10-26T21:50:42.655Z,101216.03
2022-10-26T21:53:44.633Z,101211.59
2022-10-26T21:56:46.023Z,101212.66
2022-10-26T21:59:47.428Z,101212.22
2022-10-26T22:02:49.254Z,101214.06
2022-10-26T22:05:52.239Z,101218.88
2022-10-26T22:08:53.740Z,101217.16
2022-10-26T22:11:55.126Z,101220.72
2022-10-26T22:14:56.654Z,101230.56
2022-10-26T22:17:58.036Z,101233.56
2022-10-26T22:20:59.610Z,101232.00
2022-10-26T22:24:01.216Z,101226.66
2022-10-26T22:27:02.608Z,101226.78
2022-10-26T22:30:04.392Z,101234.06
2022-10-26T22:33:05.807Z,101236.59
2022-10-26T22:36:12.418Z,101237.63
2022-10-26T22:39:14.245Z,101242.88
2022-10-26T22:42:15.702Z,101250.00
2022-10-26T22:45:17.089Z,101244.69
2022-10-26T22:48:18.474Z,101252.50
2022-10-26T22:51:21.936Z,101253.34
2022-10-26T22:54:23.337Z,101249.72
2022-10-26T22:57:24.716Z,101251.59
2022-10-26T23:00:26.101Z,101258.75
2022-10-26T23:03:28.360Z,101243.91
2022-10-26T23:06:31.589Z,101247.66
2022-10-26T23:09:32.984Z,101259.16
2022-10-26T23:12:34.403Z,101252.06
2022-10-26T23:15:35.833Z,101257.38
2022-10-26T23:18:37.660Z,101253.88
2022-10-26T23:21:39.073Z,101252.50
2022-10-26T23:24:40.525Z,101249.16
2022-10-26T23:27:41.923Z,101259.09
2022-10-26T23:30:47.098Z,101259.19
2022-10-26T23:33:52.748Z,101260.22
2022-10-26T23:36:54.156Z,101265.53
2022-10-26T23:39:55.554Z,101268.34
2022-10-26T23:42:56.950Z,101274.53
2022-10-26T23:45:58.414Z,101269.91
2022-10-26T23:48:59.830Z,101275.06
2022-10-26T23:52:01.211Z,101264.56
2022-10-26T23:55:02.671Z,101269.00
2022-10-26T23:58:04.449Z,101266.28
